EGMT weather

Thurrock Airfield
England, United Kingdom

Public forecast

Using degrees Celsius for public forecast. Weather courtesy of forecast.io.

METAR (pilot weather report)

Closest report is London City Airport, 11.8 nm (21.9 km) W. Retrieved 2019/07/20 09:20 UTC (0 seconds ago):

EGLC 200920Z AUTO 23009KT 190V260 9999 BKN017 BKN025 BKN030 21/17 Q1006

TAF (pilot weather forecast)

Forecast is more than 12 hours old.

Closest forecast is London City Airport, 11.8 nm (21.9 km) W. Retrieved 2018/10/15 21:30 UTC (9 months ago):

TAF EGLC 152119Z 1521/1621 CNL